Terminal Aerodrome Forecast
Issued by NWS Wilmington, NC

Home | Current Version | Previous Version | Text Only | Print | Product List | Glossary On
Versions: 1 2 3 4 5 6 7 8 9 10 11 12 13 14
798
FTUS42 KILM 140525
TAFMYR
TAF
KMYR 140525Z 1406/1506 24009G15KT P6SM SKC
     FM141500 26009KT P6SM SCT200
     FM150000 27003KT P6SM SKC=

USA.gov is the U.S. government's official web portal to all federal, state and local government web resources and services.